sensor_id;sensor_type;location;lat;lon;timestamp;P1;durP1;ratioP1;P2;durP2;ratioP2
61527;SDS011;47395;42.032;-8.634;2024-02-21T00:00:18;48.88;;;26.80;;
61527;SDS011;47395;42.032;-8.634;2024-02-21T00:02:20;54.00;;;28.80;;
61527;SDS011;47395;42.032;-8.634;2024-02-21T00:04:21;48.58;;;26.80;;
61527;SDS011;47395;42.032;-8.634;2024-02-21T00:06:23;48.38;;;26.25;;
61527;SDS011;47395;42.032;-8.634;2024-02-21T00:08:24;45.72;;;25.25;;
61527;SDS011;47395;42.032;-8.634;2024-02-21T00:10:25;41.65;;;23.88;;
61527;SDS011;47395;42.032;-8.634;2024-02-21T00:12:26;39.22;;;23.35;;
61527;SDS011;47395;42.032;-8.634;2024-02-21T00:14:27;40.83;;;24.05;;
61527;SDS011;47395;42.032;-8.634;2024-02-21T00:16:28;41.55;;;24.42;;
61527;SDS011;47395;42.032;-8.634;2024-02-21T00:18:30;46.08;;;25.70;;
61527;SDS011;47395;42.032;-8.634;2024-02-21T00:20:31;41.03;;;24.77;;
61527;SDS011;47395;42.032;-8.634;2024-02-21T00:22:32;42.33;;;24.00;;
61527;SDS011;47395;42.032;-8.634;2024-02-21T00:24:36;42.10;;;24.35;;
61527;SDS011;47395;42.032;-8.634;2024-02-21T00:26:37;38.88;;;24.30;;
61527;SDS011;47395;42.032;-8.634;2024-02-21T00:28:38;38.78;;;24.38;;
61527;SDS011;47395;42.032;-8.634;2024-02-21T00:30:39;39.58;;;23.30;;
61527;SDS011;47395;42.032;-8.634;2024-02-21T00:32:40;42.40;;;24.38;;
61527;SDS011;47395;42.032;-8.634;2024-02-21T00:34:41;35.25;;;23.50;;
61527;SDS011;47395;42.032;-8.634;2024-02-21T00:36:42;47.00;;;25.55;;
61527;SDS011;47395;42.032;-8.634;2024-02-21T00:38:43;42.53;;;24.73;;
61527;SDS011;47395;42.032;-8.634;2024-02-21T00:40:45;43.63;;;24.45;;
61527;SDS011;47395;42.032;-8.634;2024-02-21T00:42:46;41.22;;;23.77;;
61527;SDS011;47395;42.032;-8.634;2024-02-21T00:44:47;41.15;;;23.80;;
61527;SDS011;47395;42.032;-8.634;2024-02-21T00:46:48;39.80;;;23.85;;
61527;SDS011;47395;42.032;-8.634;2024-02-21T00:48:49;32.80;;;22.35;;
61527;SDS011;47395;42.032;-8.634;2024-02-21T00:50:51;35.47;;;21.38;;
61527;SDS011;47395;42.032;-8.634;2024-02-21T00:52:52;35.90;;;22.65;;
61527;SDS011;47395;42.032;-8.634;2024-02-21T00:54:54;34.83;;;22.85;;
61527;SDS011;47395;42.032;-8.634;2024-02-21T00:56:55;29.40;;;20.80;;
61527;SDS011;47395;42.032;-8.634;2024-02-21T00:58:56;37.38;;;21.98;;
61527;SDS011;47395;42.032;-8.634;2024-02-21T01:00:57;36.78;;;21.42;;
61527;SDS011;47395;42.032;-8.634;2024-02-21T01:02:58;36.03;;;19.83;;
61527;SDS011;47395;42.032;-8.634;2024-02-21T01:04:59;30.10;;;16.90;;
61527;SDS011;47395;42.032;-8.634;2024-02-21T01:07:00;36.13;;;16.45;;
61527;SDS011;47395;42.032;-8.634;2024-02-21T01:09:01;36.25;;;18.50;;
61527;SDS011;47395;42.032;-8.634;2024-02-21T01:11:03;37.85;;;21.02;;
61527;SDS011;47395;42.032;-8.634;2024-02-21T01:13:05;29.13;;;17.95;;
61527;SDS011;47395;42.032;-8.634;2024-02-21T01:15:07;34.38;;;21.67;;
61527;SDS011;47395;42.032;-8.634;2024-02-21T01:17:09;36.80;;;21.52;;
61527;SDS011;47395;42.032;-8.634;2024-02-21T01:19:10;46.78;;;23.40;;
61527;SDS011;47395;42.032;-8.634;2024-02-21T01:21:11;38.15;;;21.73;;
61527;SDS011;47395;42.032;-8.634;2024-02-21T01:23:13;37.80;;;22.85;;
61527;SDS011;47395;42.032;-8.634;2024-02-21T01:25:14;38.92;;;23.17;;
61527;SDS011;47395;42.032;-8.634;2024-02-21T01:27:16;36.85;;;23.05;;
61527;SDS011;47395;42.032;-8.634;2024-02-21T01:29:17;38.88;;;22.63;;
61527;SDS011;47395;42.032;-8.634;2024-02-21T01:31:18;39.97;;;22.77;;
61527;SDS011;47395;42.032;-8.634;2024-02-21T01:33:19;35.80;;;22.02;;
61527;SDS011;47395;42.032;-8.634;2024-02-21T01:35:20;34.10;;;21.40;;
61527;SDS011;47395;42.032;-8.634;2024-02-21T01:37:21;39.70;;;22.08;;
61527;SDS011;47395;42.032;-8.634;2024-02-21T01:39:22;33.53;;;21.23;;
61527;SDS011;47395;42.032;-8.634;2024-02-21T01:41:23;46.00;;;23.60;;
61527;SDS011;47395;42.032;-8.634;2024-02-21T01:43:25;40.80;;;23.42;;
61527;SDS011;47395;42.032;-8.634;2024-02-21T01:45:26;39.20;;;24.08;;
61527;SDS011;47395;42.032;-8.634;2024-02-21T01:47:27;34.83;;;22.15;;
61527;SDS011;47395;42.032;-8.634;2024-02-21T01:49:29;36.60;;;23.05;;
61527;SDS011;47395;42.032;-8.634;2024-02-21T01:51:30;36.65;;;22.38;;
61527;SDS011;47395;42.032;-8.634;2024-02-21T01:53:35;35.45;;;21.45;;
61527;SDS011;47395;42.032;-8.634;2024-02-21T01:55:40;37.85;;;22.27;;
61527;SDS011;47395;42.032;-8.634;2024-02-21T01:57:42;30.35;;;21.35;;
61527;SDS011;47395;42.032;-8.634;2024-02-21T01:59:47;33.75;;;20.35;;
61527;SDS011;47395;42.032;-8.634;2024-02-21T02:01:48;27.70;;;18.77;;
61527;SDS011;47395;42.032;-8.634;2024-02-21T02:03:51;29.88;;;19.33;;
61527;SDS011;47395;42.032;-8.634;2024-02-21T02:05:53;31.08;;;20.23;;
61527;SDS011;47395;42.032;-8.634;2024-02-21T02:07:54;31.38;;;19.13;;
61527;SDS011;47395;42.032;-8.634;2024-02-21T02:09:55;29.25;;;18.30;;
61527;SDS011;47395;42.032;-8.634;2024-02-21T02:11:56;32.75;;;19.38;;
61527;SDS011;47395;42.032;-8.634;2024-02-21T02:13:58;26.95;;;18.30;;
61527;SDS011;47395;42.032;-8.634;2024-02-21T02:16:00;27.17;;;18.23;;
61527;SDS011;47395;42.032;-8.634;2024-02-21T02:18:02;34.70;;;19.55;;
61527;SDS011;47395;42.032;-8.634;2024-02-21T02:20:03;34.58;;;19.45;;
61527;SDS011;47395;42.032;-8.634;2024-02-21T02:22:13;29.00;;;18.45;;
61527;SDS011;47395;42.032;-8.634;2024-02-21T02:24:23;30.50;;;18.70;;
61527;SDS011;47395;42.032;-8.634;2024-02-21T02:26:28;31.40;;;20.10;;
61527;SDS011;47395;42.032;-8.634;2024-02-21T02:28:29;27.85;;;18.70;;
61527;SDS011;47395;42.032;-8.634;2024-02-21T02:30:32;33.92;;;18.67;;
61527;SDS011;47395;42.032;-8.634;2024-02-21T02:32:35;34.58;;;19.55;;
61527;SDS011;47395;42.032;-8.634;2024-02-21T02:34:37;37.97;;;20.45;;
61527;SDS011;47395;42.032;-8.634;2024-02-21T02:36:38;34.28;;;19.42;;
61527;SDS011;47395;42.032;-8.634;2024-02-21T02:38:39;33.25;;;19.33;;
61527;SDS011;47395;42.032;-8.634;2024-02-21T02:40:40;31.35;;;18.67;;
61527;SDS011;47395;42.032;-8.634;2024-02-21T02:42:41;30.70;;;18.17;;
61527;SDS011;47395;42.032;-8.634;2024-02-21T02:44:42;40.22;;;19.58;;
61527;SDS011;47395;42.032;-8.634;2024-02-21T02:46:43;32.53;;;20.63;;
61527;SDS011;47395;42.032;-8.634;2024-02-21T02:48:44;27.05;;;19.23;;
61527;SDS011;47395;42.032;-8.634;2024-02-21T02:50:45;34.25;;;18.67;;
61527;SDS011;47395;42.032;-8.634;2024-02-21T02:52:46;29.60;;;19.50;;
61527;SDS011;47395;42.032;-8.634;2024-02-21T02:54:47;29.95;;;17.75;;
61527;SDS011;47395;42.032;-8.634;2024-02-21T02:56:52;28.45;;;18.20;;
61527;SDS011;47395;42.032;-8.634;2024-02-21T02:58:53;32.60;;;19.15;;
61527;SDS011;47395;42.032;-8.634;2024-02-21T03:00:54;25.65;;;17.42;;
61527;SDS011;47395;42.032;-8.634;2024-02-21T03:02:55;27.88;;;19.40;;
61527;SDS011;47395;42.032;-8.634;2024-02-21T03:04:56;27.90;;;19.40;;
61527;SDS011;47395;42.032;-8.634;2024-02-21T03:06:57;32.33;;;17.75;;
61527;SDS011;47395;42.032;-8.634;2024-02-21T03:08:58;30.70;;;18.27;;
61527;SDS011;47395;42.032;-8.634;2024-02-21T03:11:00;30.55;;;18.75;;
61527;SDS011;47395;42.032;-8.634;2024-02-21T03:13:01;31.63;;;19.67;;
61527;SDS011;47395;42.032;-8.634;2024-02-21T03:15:02;35.78;;;17.73;;
61527;SDS011;47395;42.032;-8.634;2024-02-21T03:17:05;29.25;;;18.33;;
61527;SDS011;47395;42.032;-8.634;2024-02-21T03:19:06;31.15;;;18.95;;
61527;SDS011;47395;42.032;-8.634;2024-02-21T03:21:08;26.40;;;17.35;;
61527;SDS011;47395;42.032;-8.634;2024-02-21T03:23:09;30.70;;;18.40;;
61527;SDS011;47395;42.032;-8.634;2024-02-21T03:25:10;28.52;;;18.13;;
61527;SDS011;47395;42.032;-8.634;2024-02-21T03:27:11;34.35;;;18.25;;
61527;SDS011;47395;42.032;-8.634;2024-02-21T03:29:12;29.70;;;18.23;;
61527;SDS011;47395;42.032;-8.634;2024-02-21T03:31:13;27.63;;;17.67;;
61527;SDS011;47395;42.032;-8.634;2024-02-21T03:33:15;28.80;;;17.98;;
61527;SDS011;47395;42.032;-8.634;2024-02-21T03:35:16;27.10;;;17.88;;
61527;SDS011;47395;42.032;-8.634;2024-02-21T03:37:17;29.52;;;17.92;;
61527;SDS011;47395;42.032;-8.634;2024-02-21T03:39:18;24.40;;;17.02;;
61527;SDS011;47395;42.032;-8.634;2024-02-21T03:41:21;29.58;;;19.40;;
61527;SDS011;47395;42.032;-8.634;2024-02-21T03:43:22;27.08;;;17.95;;
61527;SDS011;47395;42.032;-8.634;2024-02-21T03:45:23;30.38;;;18.85;;
61527;SDS011;47395;42.032;-8.634;2024-02-21T03:47:24;26.08;;;18.02;;
61527;SDS011;47395;42.032;-8.634;2024-02-21T03:49:25;26.73;;;18.63;;
61527;SDS011;47395;42.032;-8.634;2024-02-21T03:51:26;29.88;;;18.35;;
61527;SDS011;47395;42.032;-8.634;2024-02-21T03:53:27;30.58;;;19.35;;
61527;SDS011;47395;42.032;-8.634;2024-02-21T03:55:28;32.67;;;19.98;;
61527;SDS011;47395;42.032;-8.634;2024-02-21T03:57:30;26.55;;;17.65;;
61527;SDS011;47395;42.032;-8.634;2024-02-21T03:59:31;33.95;;;20.75;;
61527;SDS011;47395;42.032;-8.634;2024-02-21T04:01:32;26.10;;;18.77;;
61527;SDS011;47395;42.032;-8.634;2024-02-21T04:03:33;29.38;;;18.65;;
61527;SDS011;47395;42.032;-8.634;2024-02-21T04:05:34;27.80;;;17.02;;
61527;SDS011;47395;42.032;-8.634;2024-02-21T04:07:35;28.48;;;18.45;;
61527;SDS011;47395;42.032;-8.634;2024-02-21T04:09:37;30.58;;;18.77;;
61527;SDS011;47395;42.032;-8.634;2024-02-21T04:11:39;24.10;;;17.90;;
61527;SDS011;47395;42.032;-8.634;2024-02-21T04:13:40;24.15;;;17.13;;
61527;SDS011;47395;42.032;-8.634;2024-02-21T04:15:42;30.38;;;18.70;;
61527;SDS011;47395;42.032;-8.634;2024-02-21T04:17:43;35.72;;;19.38;;
61527;SDS011;47395;42.032;-8.634;2024-02-21T04:19:45;23.75;;;18.02;;
61527;SDS011;47395;42.032;-8.634;2024-02-21T04:21:46;25.35;;;17.88;;
61527;SDS011;47395;42.032;-8.634;2024-02-21T04:23:47;25.00;;;16.92;;
61527;SDS011;47395;42.032;-8.634;2024-02-21T04:25:48;30.33;;;17.77;;
61527;SDS011;47395;42.032;-8.634;2024-02-21T04:27:49;32.53;;;17.83;;
61527;SDS011;47395;42.032;-8.634;2024-02-21T04:29:50;27.15;;;18.13;;
61527;SDS011;47395;42.032;-8.634;2024-02-21T04:31:51;28.88;;;19.33;;
61527;SDS011;47395;42.032;-8.634;2024-02-21T04:33:52;25.65;;;18.30;;
61527;SDS011;47395;42.032;-8.634;2024-02-21T04:35:53;28.55;;;18.60;;
61527;SDS011;47395;42.032;-8.634;2024-02-21T04:37:55;26.90;;;17.90;;
61527;SDS011;47395;42.032;-8.634;2024-02-21T04:39:56;28.67;;;18.75;;
61527;SDS011;47395;42.032;-8.634;2024-02-21T04:41:57;20.33;;;16.70;;
61527;SDS011;47395;42.032;-8.634;2024-02-21T04:43:58;27.90;;;17.85;;
61527;SDS011;47395;42.032;-8.634;2024-02-21T04:45:59;30.45;;;18.20;;
61527;SDS011;47395;42.032;-8.634;2024-02-21T04:48:00;24.42;;;17.73;;
61527;SDS011;47395;42.032;-8.634;2024-02-21T04:50:01;27.42;;;17.17;;
61527;SDS011;47395;42.032;-8.634;2024-02-21T04:52:02;26.83;;;18.85;;
61527;SDS011;47395;42.032;-8.634;2024-02-21T04:54:04;26.52;;;17.55;;
61527;SDS011;47395;42.032;-8.634;2024-02-21T04:56:06;25.85;;;17.23;;
61527;SDS011;47395;42.032;-8.634;2024-02-21T04:58:07;28.02;;;17.35;;
61527;SDS011;47395;42.032;-8.634;2024-02-21T05:00:08;26.73;;;16.70;;
61527;SDS011;47395;42.032;-8.634;2024-02-21T05:07:07;26.40;;;17.83;;
61527;SDS011;47395;42.032;-8.634;2024-02-21T05:09:08;26.20;;;18.42;;
61527;SDS011;47395;42.032;-8.634;2024-02-21T05:11:10;25.38;;;18.52;;
61527;SDS011;47395;42.032;-8.634;2024-02-21T05:13:10;30.67;;;19.42;;
61527;SDS011;47395;42.032;-8.634;2024-02-21T05:15:11;28.70;;;19.08;;
61527;SDS011;47395;42.032;-8.634;2024-02-21T05:17:12;28.88;;;18.98;;
61527;SDS011;47395;42.032;-8.634;2024-02-21T05:19:13;31.00;;;18.98;;
61527;SDS011;47395;42.032;-8.634;2024-02-21T05:21:14;32.30;;;20.75;;
61527;SDS011;47395;42.032;-8.634;2024-02-21T05:23:15;28.13;;;19.73;;
61527;SDS011;47395;42.032;-8.634;2024-02-21T05:25:16;28.25;;;19.67;;
61527;SDS011;47395;42.032;-8.634;2024-02-21T05:27:17;32.67;;;20.77;;
61527;SDS011;47395;42.032;-8.634;2024-02-21T05:29:18;35.10;;;21.38;;
61527;SDS011;47395;42.032;-8.634;2024-02-21T05:31:19;33.90;;;20.42;;
61527;SDS011;47395;42.032;-8.634;2024-02-21T05:33:20;33.33;;;20.65;;
61527;SDS011;47395;42.032;-8.634;2024-02-21T05:35:27;32.38;;;20.25;;
61527;SDS011;47395;42.032;-8.634;2024-02-21T05:37:29;31.35;;;21.67;;
61527;SDS011;47395;42.032;-8.634;2024-02-21T05:39:30;35.90;;;21.23;;
61527;SDS011;47395;42.032;-8.634;2024-02-21T05:41:31;32.08;;;21.15;;
61527;SDS011;47395;42.032;-8.634;2024-02-21T05:43:31;31.73;;;19.90;;
61527;SDS011;47395;42.032;-8.634;2024-02-21T05:45:32;31.00;;;20.58;;
61527;SDS011;47395;42.032;-8.634;2024-02-21T05:47:33;35.20;;;20.27;;
61527;SDS011;47395;42.032;-8.634;2024-02-21T05:49:34;31.65;;;20.08;;
61527;SDS011;47395;42.032;-8.634;2024-02-21T05:51:36;28.35;;;19.38;;
61527;SDS011;47395;42.032;-8.634;2024-02-21T05:53:37;32.55;;;19.58;;
61527;SDS011;47395;42.032;-8.634;2024-02-21T05:55:40;29.10;;;19.67;;
61527;SDS011;47395;42.032;-8.634;2024-02-21T05:57:41;33.20;;;19.30;;
61527;SDS011;47395;42.032;-8.634;2024-02-21T05:59:42;31.88;;;19.63;;
61527;SDS011;47395;42.032;-8.634;2024-02-21T06:01:44;29.27;;;19.30;;
61527;SDS011;47395;42.032;-8.634;2024-02-21T06:03:45;32.28;;;19.10;;
61527;SDS011;47395;42.032;-8.634;2024-02-21T06:05:46;29.02;;;19.70;;
61527;SDS011;47395;42.032;-8.634;2024-02-21T06:07:47;30.98;;;18.83;;
61527;SDS011;47395;42.032;-8.634;2024-02-21T06:09:47;34.85;;;18.58;;
61527;SDS011;47395;42.032;-8.634;2024-02-21T06:11:49;28.58;;;18.27;;
61527;SDS011;47395;42.032;-8.634;2024-02-21T06:13:50;33.28;;;19.30;;
61527;SDS011;47395;42.032;-8.634;2024-02-21T06:15:50;29.83;;;19.10;;
61527;SDS011;47395;42.032;-8.634;2024-02-21T06:17:51;30.52;;;19.08;;
61527;SDS011;47395;42.032;-8.634;2024-02-21T06:19:52;30.88;;;18.58;;
61527;SDS011;47395;42.032;-8.634;2024-02-21T06:21:53;29.55;;;17.70;;
61527;SDS011;47395;42.032;-8.634;2024-02-21T06:23:54;28.23;;;17.23;;
61527;SDS011;47395;42.032;-8.634;2024-02-21T06:25:55;29.77;;;16.77;;
61527;SDS011;47395;42.032;-8.634;2024-02-21T06:27:56;29.48;;;17.17;;
61527;SDS011;47395;42.032;-8.634;2024-02-21T06:29:57;29.15;;;17.50;;
61527;SDS011;47395;42.032;-8.634;2024-02-21T06:31:58;25.45;;;16.95;;
61527;SDS011;47395;42.032;-8.634;2024-02-21T06:33:59;33.60;;;16.88;;
61527;SDS011;47395;42.032;-8.634;2024-02-21T06:36:00;31.48;;;17.80;;
61527;SDS011;47395;42.032;-8.634;2024-02-21T06:38:00;30.67;;;17.88;;
61527;SDS011;47395;42.032;-8.634;2024-02-21T06:40:01;31.33;;;18.08;;
61527;SDS011;47395;42.032;-8.634;2024-02-21T06:42:04;27.52;;;19.25;;
61527;SDS011;47395;42.032;-8.634;2024-02-21T06:44:05;28.13;;;18.25;;
61527;SDS011;47395;42.032;-8.634;2024-02-21T06:46:06;35.63;;;19.38;;
61527;SDS011;47395;42.032;-8.634;2024-02-21T06:48:07;28.27;;;19.10;;
61527;SDS011;47395;42.032;-8.634;2024-02-21T06:50:08;37.50;;;19.05;;
61527;SDS011;47395;42.032;-8.634;2024-02-21T06:52:09;35.08;;;19.10;;
61527;SDS011;47395;42.032;-8.634;2024-02-21T06:54:10;26.00;;;18.35;;
61527;SDS011;47395;42.032;-8.634;2024-02-21T06:56:11;28.23;;;18.30;;
61527;SDS011;47395;42.032;-8.634;2024-02-21T06:58:12;30.40;;;18.98;;
61527;SDS011;47395;42.032;-8.634;2024-02-21T07:00:14;30.30;;;18.75;;
61527;SDS011;47395;42.032;-8.634;2024-02-21T07:02:15;28.00;;;17.95;;
61527;SDS011;47395;42.032;-8.634;2024-02-21T07:04:16;29.20;;;17.65;;
61527;SDS011;47395;42.032;-8.634;2024-02-21T07:06:17;25.85;;;17.55;;
61527;SDS011;47395;42.032;-8.634;2024-02-21T07:08:18;26.73;;;19.50;;
61527;SDS011;47395;42.032;-8.634;2024-02-21T07:10:19;25.52;;;18.05;;
61527;SDS011;47395;42.032;-8.634;2024-02-21T07:12:20;38.33;;;17.95;;
61527;SDS011;47395;42.032;-8.634;2024-02-21T07:14:21;23.67;;;17.40;;
61527;SDS011;47395;42.032;-8.634;2024-02-21T07:16:21;32.38;;;17.20;;
61527;SDS011;47395;42.032;-8.634;2024-02-21T07:18:22;24.58;;;16.65;;
61527;SDS011;47395;42.032;-8.634;2024-02-21T07:20:25;26.17;;;16.85;;
61527;SDS011;47395;42.032;-8.634;2024-02-21T07:22:26;25.85;;;17.85;;
61527;SDS011;47395;42.032;-8.634;2024-02-21T07:24:27;23.13;;;16.30;;
61527;SDS011;47395;42.032;-8.634;2024-02-21T07:26:28;29.05;;;18.25;;
61527;SDS011;47395;42.032;-8.634;2024-02-21T07:28:29;21.95;;;15.93;;
61527;SDS011;47395;42.032;-8.634;2024-02-21T07:30:30;27.20;;;16.83;;
61527;SDS011;47395;42.032;-8.634;2024-02-21T07:32:31;27.25;;;17.38;;
61527;SDS011;47395;42.032;-8.634;2024-02-21T07:34:32;29.55;;;18.08;;
61527;SDS011;47395;42.032;-8.634;2024-02-21T07:36:32;27.52;;;18.08;;
61527;SDS011;47395;42.032;-8.634;2024-02-21T07:38:33;29.08;;;17.42;;
61527;SDS011;47395;42.032;-8.634;2024-02-21T07:40:34;28.98;;;20.30;;
61527;SDS011;47395;42.032;-8.634;2024-02-21T07:42:35;35.70;;;19.38;;
61527;SDS011;47395;42.032;-8.634;2024-02-21T07:44:36;29.73;;;18.40;;
61527;SDS011;47395;42.032;-8.634;2024-02-21T07:46:37;29.60;;;17.90;;
61527;SDS011;47395;42.032;-8.634;2024-02-21T07:48:38;28.90;;;19.27;;
61527;SDS011;47395;42.032;-8.634;2024-02-21T07:50:39;34.35;;;17.95;;
61527;SDS011;47395;42.032;-8.634;2024-02-21T07:52:40;28.17;;;18.42;;
61527;SDS011;47395;42.032;-8.634;2024-02-21T07:54:41;27.17;;;19.20;;
61527;SDS011;47395;42.032;-8.634;2024-02-21T07:56:42;25.90;;;18.65;;
61527;SDS011;47395;42.032;-8.634;2024-02-21T07:58:42;27.52;;;19.17;;
61527;SDS011;47395;42.032;-8.634;2024-02-21T08:00:44;28.00;;;18.95;;
61527;SDS011;47395;42.032;-8.634;2024-02-21T08:02:51;25.85;;;18.63;;
61527;SDS011;47395;42.032;-8.634;2024-02-21T08:04:52;27.17;;;19.92;;
61527;SDS011;47395;42.032;-8.634;2024-02-21T08:06:53;30.58;;;19.90;;
61527;SDS011;47395;42.032;-8.634;2024-02-21T08:08:56;25.80;;;18.55;;
61527;SDS011;47395;42.032;-8.634;2024-02-21T08:10:57;33.58;;;20.52;;
61527;SDS011;47395;42.032;-8.634;2024-02-21T08:12:58;28.70;;;20.02;;
61527;SDS011;47395;42.032;-8.634;2024-02-21T08:14:59;28.20;;;18.98;;
61527;SDS011;47395;42.032;-8.634;2024-02-21T08:17:00;28.17;;;18.95;;
61527;SDS011;47395;42.032;-8.634;2024-02-21T08:19:08;27.83;;;19.95;;
61527;SDS011;47395;42.032;-8.634;2024-02-21T08:21:12;28.35;;;18.92;;
61527;SDS011;47395;42.032;-8.634;2024-02-21T08:23:15;28.15;;;18.83;;
61527;SDS011;47395;42.032;-8.634;2024-02-21T08:25:17;27.48;;;18.95;;
61527;SDS011;47395;42.032;-8.634;2024-02-21T08:27:18;24.83;;;18.20;;
61527;SDS011;47395;42.032;-8.634;2024-02-21T08:29:19;27.20;;;17.00;;
61527;SDS011;47395;42.032;-8.634;2024-02-21T08:31:20;22.33;;;16.02;;
61527;SDS011;47395;42.032;-8.634;2024-02-21T08:33:21;25.60;;;16.88;;
61527;SDS011;47395;42.032;-8.634;2024-02-21T08:35:25;27.58;;;19.50;;
61527;SDS011;47395;42.032;-8.634;2024-02-21T08:37:27;29.10;;;18.02;;
61527;SDS011;47395;42.032;-8.634;2024-02-21T08:39:28;24.23;;;16.63;;
61527;SDS011;47395;42.032;-8.634;2024-02-21T08:41:33;26.58;;;16.85;;
61527;SDS011;47395;42.032;-8.634;2024-02-21T08:43:35;21.20;;;16.08;;
61527;SDS011;47395;42.032;-8.634;2024-02-21T08:45:36;26.27;;;16.40;;
61527;SDS011;47395;42.032;-8.634;2024-02-21T08:47:41;25.60;;;17.33;;
61527;SDS011;47395;42.032;-8.634;2024-02-21T08:49:42;23.92;;;17.00;;
61527;SDS011;47395;42.032;-8.634;2024-02-21T08:51:42;27.52;;;16.85;;
61527;SDS011;47395;42.032;-8.634;2024-02-21T08:53:44;24.40;;;16.45;;
61527;SDS011;47395;42.032;-8.634;2024-02-21T08:55:45;25.08;;;17.10;;
61527;SDS011;47395;42.032;-8.634;2024-02-21T08:57:46;24.33;;;16.45;;
61527;SDS011;47395;42.032;-8.634;2024-02-21T08:59:48;33.83;;;17.63;;
61527;SDS011;47395;42.032;-8.634;2024-02-21T09:01:49;23.55;;;17.30;;
61527;SDS011;47395;42.032;-8.634;2024-02-21T09:03:50;31.63;;;16.58;;
61527;SDS011;47395;42.032;-8.634;2024-02-21T09:05:54;28.88;;;17.98;;
61527;SDS011;47395;42.032;-8.634;2024-02-21T09:07:54;24.05;;;17.15;;
61527;SDS011;47395;42.032;-8.634;2024-02-21T09:09:55;26.25;;;16.85;;
61527;SDS011;47395;42.032;-8.634;2024-02-21T09:11:56;27.45;;;17.00;;
61527;SDS011;47395;42.032;-8.634;2024-02-21T09:13:57;29.58;;;17.65;;
61527;SDS011;47395;42.032;-8.634;2024-02-21T09:15:58;29.80;;;18.92;;
61527;SDS011;47395;42.032;-8.634;2024-02-21T09:17:59;32.65;;;18.88;;
61527;SDS011;47395;42.032;-8.634;2024-02-21T09:20:01;29.83;;;19.58;;
61527;SDS011;47395;42.032;-8.634;2024-02-21T09:22:03;33.38;;;20.85;;
61527;SDS011;47395;42.032;-8.634;2024-02-21T09:24:07;34.25;;;20.30;;
61527;SDS011;47395;42.032;-8.634;2024-02-21T09:26:08;33.00;;;21.15;;
61527;SDS011;47395;42.032;-8.634;2024-02-21T09:28:13;32.60;;;20.75;;
61527;SDS011;47395;42.032;-8.634;2024-02-21T09:30:15;31.83;;;21.63;;
61527;SDS011;47395;42.032;-8.634;2024-02-21T09:32:16;30.20;;;19.92;;
61527;SDS011;47395;42.032;-8.634;2024-02-21T09:34:17;34.17;;;20.25;;
61527;SDS011;47395;42.032;-8.634;2024-02-21T09:36:18;27.25;;;18.70;;
61527;SDS011;47395;42.032;-8.634;2024-02-21T09:38:19;32.85;;;19.25;;
61527;SDS011;47395;42.032;-8.634;2024-02-21T09:40:20;31.65;;;18.40;;
61527;SDS011;47395;42.032;-8.634;2024-02-21T09:42:21;31.65;;;17.88;;
61527;SDS011;47395;42.032;-8.634;2024-02-21T09:44:22;28.60;;;17.45;;
61527;SDS011;47395;42.032;-8.634;2024-02-21T09:46:50;29.10;;;17.42;;
61527;SDS011;47395;42.032;-8.634;2024-02-21T09:51:33;29.60;;;18.23;;
61527;SDS011;47395;42.032;-8.634;2024-02-21T09:53:35;31.88;;;18.17;;
61527;SDS011;47395;42.032;-8.634;2024-02-21T09:55:38;30.67;;;19.52;;
61527;SDS011;47395;42.032;-8.634;2024-02-21T09:57:41;34.88;;;17.92;;
61527;SDS011;47395;42.032;-8.634;2024-02-21T09:59:44;27.65;;;18.38;;
61527;SDS011;47395;42.032;-8.634;2024-02-21T10:01:46;28.52;;;19.60;;
61527;SDS011;47395;42.032;-8.634;2024-02-21T10:03:50;29.90;;;19.27;;
61527;SDS011;47395;42.032;-8.634;2024-02-21T10:05:51;34.63;;;19.70;;
61527;SDS011;47395;42.032;-8.634;2024-02-21T10:07:54;32.53;;;19.35;;
61527;SDS011;47395;42.032;-8.634;2024-02-21T10:10:02;27.77;;;19.63;;
61527;SDS011;47395;42.032;-8.634;2024-02-21T10:12:10;30.90;;;19.48;;
61527;SDS011;47395;42.032;-8.634;2024-02-21T10:14:12;31.25;;;19.45;;
61527;SDS011;47395;42.032;-8.634;2024-02-21T10:16:14;28.25;;;19.30;;
61527;SDS011;47395;42.032;-8.634;2024-02-21T10:18:17;34.72;;;19.42;;
61527;SDS011;47395;42.032;-8.634;2024-02-21T10:20:18;33.33;;;20.95;;
61527;SDS011;47395;42.032;-8.634;2024-02-21T10:22:19;30.60;;;21.55;;
61527;SDS011;47395;42.032;-8.634;2024-02-21T10:24:26;43.55;;;27.23;;
61527;SDS011;47395;42.032;-8.634;2024-02-21T10:26:28;43.25;;;27.80;;
61527;SDS011;47395;42.032;-8.634;2024-02-21T10:28:29;44.85;;;26.02;;
61527;SDS011;47395;42.032;-8.634;2024-02-21T10:30:30;38.90;;;25.67;;
61527;SDS011;47395;42.032;-8.634;2024-02-21T10:32:31;37.70;;;24.17;;
61527;SDS011;47395;42.032;-8.634;2024-02-21T10:34:32;36.30;;;22.63;;
61527;SDS011;47395;42.032;-8.634;2024-02-21T10:36:33;32.88;;;21.58;;
61527;SDS011;47395;42.032;-8.634;2024-02-21T10:38:35;54.45;;;34.58;;
61527;SDS011;47395;42.032;-8.634;2024-02-21T10:40:40;73.88;;;42.67;;
61527;SDS011;47395;42.032;-8.634;2024-02-21T10:42:41;65.35;;;37.92;;
61527;SDS011;47395;42.032;-8.634;2024-02-21T10:44:43;59.58;;;34.88;;
61527;SDS011;47395;42.032;-8.634;2024-02-21T10:46:46;49.33;;;30.50;;
61527;SDS011;47395;42.032;-8.634;2024-02-21T10:48:52;48.95;;;30.13;;
61527;SDS011;47395;42.032;-8.634;2024-02-21T10:51:12;50.95;;;32.55;;
61527;SDS011;47395;42.032;-8.634;2024-02-21T10:56:01;50.65;;;29.95;;
61527;SDS011;47395;42.032;-8.634;2024-02-21T10:58:12;47.50;;;29.02;;
61527;SDS011;47395;42.032;-8.634;2024-02-21T11:00:14;44.63;;;27.05;;
61527;SDS011;47395;42.032;-8.634;2024-02-21T11:02:18;35.97;;;21.63;;
61527;SDS011;47395;42.032;-8.634;2024-02-21T11:04:19;36.15;;;24.13;;
61527;SDS011;47395;42.032;-8.634;2024-02-21T11:06:22;36.40;;;24.48;;
61527;SDS011;47395;42.032;-8.634;2024-02-21T11:08:23;34.67;;;21.60;;
61527;SDS011;47395;42.032;-8.634;2024-02-21T11:10:28;30.98;;;20.60;;
61527;SDS011;47395;42.032;-8.634;2024-02-21T11:12:32;38.92;;;20.48;;
61527;SDS011;47395;42.032;-8.634;2024-02-21T11:14:33;32.83;;;19.25;;
61527;SDS011;47395;42.032;-8.634;2024-02-21T11:16:40;33.58;;;19.30;;
61527;SDS011;47395;42.032;-8.634;2024-02-21T11:18:41;36.80;;;21.20;;
61527;SDS011;47395;42.032;-8.634;2024-02-21T11:20:49;34.17;;;23.25;;
61527;SDS011;47395;42.032;-8.634;2024-02-21T11:22:51;37.72;;;24.90;;
61527;SDS011;47395;42.032;-8.634;2024-02-21T11:24:52;38.08;;;24.73;;
61527;SDS011;47395;42.032;-8.634;2024-02-21T11:26:53;40.15;;;21.85;;
61527;SDS011;47395;42.032;-8.634;2024-02-21T11:28:58;34.00;;;19.73;;
61527;SDS011;47395;42.032;-8.634;2024-02-21T11:31:07;31.50;;;19.40;;
61527;SDS011;47395;42.032;-8.634;2024-02-21T11:33:09;45.03;;;21.00;;
61527;SDS011;47395;42.032;-8.634;2024-02-21T11:35:18;38.30;;;20.25;;
61527;SDS011;47395;42.032;-8.634;2024-02-21T11:37:20;41.00;;;18.58;;
61527;SDS011;47395;42.032;-8.634;2024-02-21T11:39:22;32.60;;;18.63;;
61527;SDS011;47395;42.032;-8.634;2024-02-21T11:41:25;31.85;;;17.88;;
61527;SDS011;47395;42.032;-8.634;2024-02-21T11:43:26;24.20;;;18.48;;
61527;SDS011;47395;42.032;-8.634;2024-02-21T11:45:26;25.38;;;16.30;;
61527;SDS011;47395;42.032;-8.634;2024-02-21T11:47:30;28.52;;;16.58;;
61527;SDS011;47395;42.032;-8.634;2024-02-21T11:49:35;23.55;;;14.90;;
61527;SDS011;47395;42.032;-8.634;2024-02-21T11:51:38;22.95;;;14.32;;